Asotin, WA (99402)

11:15 PM PST on February 13, 2016 (GMT -0800)
Nick's Weather Station | | Change Station
CLOSE
Current Station
Personal Weather Station
Location: Lewiston, ID
Elevation: 1076 ft
Nearby Weather Stations

Elev 1076 ft 46.37 °N, 117.04 °W | Updated 5 minutes ago

Light Rain
Light Rain
43.9 °F
Feels Like 44 °F
N
0.9
Wind Variable Wind from SSW
Gusts 0.9 mph

Today
High -- | Low -- °F
--% Chance of Precip.
Yesterday
High -- | Low -- °F
Precip. -- in
Pressure 30.16 in
Visibility 10.0 miles
Clouds Overcast 4700 ft
Windchill 44 °F
Dew Point 38 °F
Humidity 79%
Rainfall 0.05 in
Snow Depth Not available.
6:55 AM 5:10 PM
Waxing Crescent, 39% visible
METAR KLWS 140656Z 07003KT 10SM -RA OVC047 06/04 A3014 RMK AO2 SLP213 P0001 T00560039
Pressure 30.16 in
Visibility 10.0 miles
Clouds Overcast 4700 ft
Windchill 44 °F
Dew Point 38 °F
Humidity 79%
Rainfall 0.05 in
Snow Depth Not available.
6:55 AM 5:10 PM
Waxing Crescent, 39% visible
METAR KLWS 140656Z 07003KT 10SM -RA OVC047 06/04 A3014 RMK AO2 SLP213 P0001 T00560039

10-Day Weather Forecast

Almanac

Astronomy

Feb. 13, 2016 Rise Set
Actual Time
Civil Twilight
Nautical Twilight
Astronomical Twilight
Moon
Length of Visible Light
Length of Day
Tomorrow will be .
, % of the Moon is Illuminated

Today's Extremes

State Highs State Lows

Community

WunderPhotos

Upload Photos

1,892,757 photos uploaded!

WunderBlog® & News

Nearby

Air Quality

  Air Quality AQ Index Pollutant
Not available.

Snow Depth

Station Depth Elevation

Earthquake Activity

City Distance Mag. Time & Date
Minimum magnitude displayed is 2.5.

Coastal Water Temperatures

Place Temperature

Stations

Nearby Weather Stations

Station Location Temp. Windchill Dew Point Humidity Wind Precip. Elev Updated Type
                   

Watches & Warnings

There are currently no watches in effect.